Time;durP1;ratioP1;P1;durP2;ratioP2;P2;SDS_P1;SDS_P2;PMS_P1;PMS_P2;Temp;Humidity;BMP_temperature;BMP_pressure;BME280_temperature;BME280_humidity;BME280_pressure;Samples;Min_cycle;Max_cycle;Signal;HPM_P1;HPM_P2
2023/07/28 00:02:10;;;;;;;1.85;1.70;;;21.20;69.70;;;;;;4994103;28;20184;-69
2023/07/28 00:04:37;;;;;;;2.22;1.83;;;21.20;69.60;;;;;;4979488;28;20208;-70
2023/07/28 00:07:04;;;;;;;1.77;1.67;;;21.20;69.70;;;;;;5007573;28;20203;-70
2023/07/28 00:09:31;;;;;;;1.77;1.67;;;21.20;69.60;;;;;;4986373;28;20250;-70
2023/07/28 00:11:58;;;;;;;2.08;1.88;;;21.20;69.60;;;;;;4979956;28;20185;-70
2023/07/28 00:14:25;;;;;;;2.10;1.90;;;21.20;69.60;;;;;;4993437;28;20192;-70
2023/07/28 00:16:52;;;;;;;2.05;1.90;;;21.20;69.60;;;;;;5011158;28;20212;-70
2023/07/28 00:19:18;;;;;;;2.03;1.90;;;21.20;69.60;;;;;;5010380;28;20199;-69
2023/07/28 00:21:44;;;;;;;2.17;1.98;;;21.20;69.60;;;;;;4978165;28;20183;-70
2023/07/28 00:24:10;;;;;;;1.90;1.80;;;21.20;69.60;;;;;;4999373;28;20651;-69
2023/07/28 00:26:36;;;;;;;2.17;1.95;;;21.10;69.50;;;;;;4994543;28;20651;-69
2023/07/28 00:29:04;;;;;;;1.60;1.50;;;21.20;69.50;;;;;;5004725;28;20208;-70
2023/07/28 00:31:30;;;;;;;1.85;1.67;;;21.20;69.50;;;;;;5003132;28;20184;-70
2023/07/28 00:33:56;;;;;;;1.83;1.70;;;21.20;69.60;;;;;;4991110;28;20613;-70
2023/07/28 00:36:23;;;;;;;2.75;2.10;;;21.10;69.40;;;;;;4983349;28;20282;-70
2023/07/28 00:38:48;;;;;;;2.17;1.98;;;21.10;69.50;;;;;;5009526;28;20184;-70
2023/07/28 00:41:15;;;;;;;2.13;2.00;;;21.10;69.40;;;;;;4994017;28;20192;-70
2023/07/28 00:43:41;;;;;;;1.70;1.60;;;21.20;69.50;;;;;;4970435;28;20607;-70
2023/07/28 00:46:08;;;;;;;1.65;1.55;;;21.20;69.50;;;;;;5010741;28;20310;-70
2023/07/28 00:48:34;;;;;;;1.98;1.85;;;21.10;69.50;;;;;;4969671;28;20212;-70
2023/07/28 00:51:00;;;;;;;1.88;1.70;;;21.10;69.40;;;;;;5010623;28;20330;-70
2023/07/28 00:53:27;;;;;;;1.88;1.77;;;21.10;69.30;;;;;;4991836;28;20196;-70
2023/07/28 00:55:53;;;;;;;1.80;1.70;;;21.20;69.50;;;;;;5001277;28;20771;-69
2023/07/28 00:58:19;;;;;;;1.75;1.65;;;21.20;69.50;;;;;;4990904;28;20293;-70
2023/07/28 01:00:45;;;;;;;2.20;2.00;;;21.10;69.30;;;;;;5000137;28;20207;-70
2023/07/28 01:03:11;;;;;;;1.90;1.70;;;21.20;69.40;;;;;;5007146;28;20187;-70
2023/07/28 01:06:06;;;;;;;2.33;1.70;;;21.20;69.40;;;;;;5010368;28;20218;-70
2023/07/28 01:08:46;;;;;;;1.85;1.75;;;21.10;69.40;;;;;;5008571;28;20212;-70
2023/07/28 01:11:12;;;;;;;2.03;1.90;;;21.10;69.40;;;;;;4979660;28;20183;-70
2023/07/28 01:13:38;;;;;;;1.80;1.70;;;21.10;69.40;;;;;;4986065;28;20191;-70
2023/07/28 01:16:03;;;;;;;2.00;1.80;;;21.10;69.30;;;;;;5010283;28;20208;-70
2023/07/28 01:18:29;;;;;;;2.00;1.90;;;21.10;69.30;;;;;;5009840;28;20572;-70
2023/07/28 01:21:00;;;;;;;2.00;1.73;;;21.20;69.40;;;;;;5010502;28;20238;-70
2023/07/28 01:23:44;;;;;;;2.08;1.92;;;21.10;69.30;;;;;;4993637;28;20198;-70
2023/07/28 01:26:13;;;;;;;2.22;1.70;;;21.10;69.30;;;;;;4993878;28;20243;-69
2023/07/28 01:28:41;;;;;;;2.10;1.90;;;21.10;69.40;;;;;;4993131;28;20258;-69
2023/07/28 01:31:08;;;;;;;1.63;1.52;;;21.10;69.30;;;;;;5010554;28;20220;-70
2023/07/28 01:33:34;;;;;;;1.90;1.75;;;21.10;69.30;;;;;;5002993;28;20191;-69
2023/07/28 01:36:00;;;;;;;1.83;1.70;;;21.10;69.40;;;;;;5011269;28;20239;-70
2023/07/28 01:38:27;;;;;;;2.08;1.98;;;21.10;69.30;;;;;;5008314;28;20195;-70
2023/07/28 01:40:53;;;;;;;2.00;1.90;;;21.10;69.30;;;;;;5000858;28;20192;-70
2023/07/28 01:43:19;;;;;;;1.88;1.77;;;21.10;69.30;;;;;;5004331;28;20200;-69
2023/07/28 01:45:45;;;;;;;2.70;1.88;;;21.10;69.30;;;;;;4993956;28;20212;-70
2023/07/28 01:48:11;;;;;;;1.98;1.85;;;21.10;69.30;;;;;;5010838;28;20292;-70
2023/07/28 01:50:38;;;;;;;1.77;1.67;;;21.10;69.30;;;;;;5013342;28;20180;-70
2023/07/28 01:53:05;;;;;;;1.92;1.83;;;21.10;69.30;;;;;;5013605;28;20184;-69
2023/07/28 01:55:31;;;;;;;2.85;2.08;;;21.10;69.30;;;;;;4981022;28;20219;-70
2023/07/28 01:58:00;;;;;;;1.85;1.75;;;21.10;69.30;;;;;;4996887;28;20203;-70
2023/07/28 02:00:27;;;;;;;2.20;2.00;;;21.10;69.30;;;;;;5013160;28;20271;-70
2023/07/28 02:02:53;;;;;;;1.88;1.70;;;21.10;69.30;;;;;;5008561;28;20204;-70
2023/07/28 02:05:20;;;;;;;2.20;2.00;;;21.10;69.30;;;;;;4994017;28;20204;-70
2023/07/28 02:07:46;;;;;;;1.80;1.70;;;21.10;69.30;;;;;;4996698;28;20239;-70
2023/07/28 02:10:12;;;;;;;1.90;1.80;;;21.10;69.30;;;;;;4997397;28;20212;-70
2023/07/28 02:12:39;;;;;;;2.03;1.92;;;21.10;69.30;;;;;;5014438;28;20686;-70
2023/07/28 02:15:07;;;;;;;2.75;1.90;;;21.10;69.30;;;;;;5005175;28;20212;-70
2023/07/28 02:17:33;;;;;;;1.85;1.70;;;21.10;69.20;;;;;;4996268;28;20252;-70
2023/07/28 02:19:59;;;;;;;1.88;1.77;;;21.10;69.20;;;;;;5013139;28;20271;-70
2023/07/28 02:22:24;;;;;;;2.22;2.03;;;21.10;69.20;;;;;;5015340;28;20292;-70
2023/07/28 02:24:50;;;;;;;1.90;1.80;;;21.10;69.20;;;;;;5012919;28;20690;-70
2023/07/28 02:27:16;;;;;;;2.03;1.75;;;21.10;69.20;;;;;;4996401;28;20215;-70
2023/07/28 02:29:42;;;;;;;1.70;1.60;;;21.10;69.20;;;;;;4996547;28;20188;-70
2023/07/28 02:32:08;;;;;;;1.70;1.60;;;21.10;69.20;;;;;;5012609;28;20219;-70
2023/07/28 02:34:34;;;;;;;1.75;1.65;;;21.10;69.20;;;;;;4996346;28;20250;-70
2023/07/28 02:37:00;;;;;;;1.60;1.50;;;21.10;69.20;;;;;;5009441;28;20217;-70
2023/07/28 02:39:26;;;;;;;2.08;1.80;;;21.10;69.20;;;;;;5001497;28;20212;-69
2023/07/28 02:41:52;;;;;;;2.00;1.80;;;21.10;69.10;;;;;;4997186;28;20192;-70
2023/07/28 02:44:17;;;;;;;1.83;1.65;;;21.10;69.20;;;;;;4996352;28;20184;-70
2023/07/28 02:46:43;;;;;;;2.40;1.67;;;21.00;69.10;;;;;;4996132;28;20188;-70
2023/07/28 02:49:09;;;;;;;2.10;2.00;;;21.10;69.20;;;;;;4996257;28;20682;-69
2023/07/28 02:51:34;;;;;;;2.03;1.75;;;21.00;69.00;;;;;;5004175;28;20183;-70
2023/07/28 02:54:01;;;;;;;1.65;1.55;;;21.10;69.20;;;;;;4996237;28;20278;-70
2023/07/28 02:56:26;;;;;;;1.73;1.45;;;21.10;69.20;;;;;;4995288;28;20741;-70
2023/07/28 02:58:52;;;;;;;1.67;1.58;;;21.00;69.00;;;;;;4982946;28;20195;-70
2023/07/28 03:01:18;;;;;;;1.77;1.67;;;21.10;69.20;;;;;;5015321;28;20287;-69
2023/07/28 03:03:47;;;;;;;1.70;1.60;;;21.10;69.20;;;;;;4995847;28;20234;-70
2023/07/28 03:06:13;;;;;;;3.22;1.80;;;21.00;69.80;;;;;;5012107;28;20226;-68
2023/07/28 03:08:39;;;;;;;2.83;1.95;;;21.00;69.00;;;;;;5011847;28;20262;-70
2023/07/28 03:11:24;;;;;;;2.00;1.80;;;21.00;69.00;;;;;;4998843;28;20223;-70
2023/07/28 03:13:50;;;;;;;2.15;1.50;;;21.10;69.10;;;;;;4971888;28;20184;-70
2023/07/28 03:16:16;;;;;;;1.88;1.70;;;21.10;69.10;;;;;;4995887;28;20204;-70
2023/07/28 03:18:42;;;;;;;1.60;1.50;;;21.00;69.00;;;;;;5011338;28;20198;-68
2023/07/28 03:21:11;;;;;;;1.75;1.65;;;21.00;69.00;;;;;;5011993;28;20192;-69
2023/07/28 03:23:37;;;;;;;1.52;1.40;;;21.00;68.90;;;;;;4995401;28;20194;-70
2023/07/28 03:26:03;;;;;;;1.60;1.50;;;21.10;69.80;;;;;;4992324;28;20213;-68
2023/07/28 03:28:28;;;;;;;1.80;1.70;;;21.10;69.00;;;;;;4991847;28;20211;-68
2023/07/28 03:30:54;;;;;;;1.50;1.40;;;21.00;68.90;;;;;;4987279;28;20766;-69
2023/07/28 03:33:20;;;;;;;2.15;1.95;;;21.00;68.90;;;;;;4995673;28;20188;-68
2023/07/28 03:35:45;;;;;;;1.65;1.55;;;21.00;68.90;;;;;;4995139;28;20216;-69
2023/07/28 03:38:12;;;;;;;1.95;1.77;;;21.00;68.90;;;;;;4989909;28;20195;-69
2023/07/28 03:40:40;;;;;;;1.70;1.60;;;21.00;68.90;;;;;;4995595;28;20188;-69
2023/07/28 03:43:05;;;;;;;1.80;1.70;;;21.00;68.90;;;;;;5008652;28;20197;-69
2023/07/28 03:45:31;;;;;;;1.73;1.63;;;21.00;68.90;;;;;;4981268;28;20212;-68
2023/07/28 03:47:57;;;;;;;2.15;1.98;;;21.00;68.90;;;;;;4979086;28;20215;-69
2023/07/28 03:50:24;;;;;;;1.80;1.70;;;21.00;68.90;;;;;;5011809;28;20188;-68
2023/07/28 03:52:50;;;;;;;1.73;1.63;;;21.00;68.90;;;;;;4994864;28;20192;-70
2023/07/28 03:55:15;;;;;;;1.67;1.55;;;21.00;68.90;;;;;;5011190;28;20222;-69
2023/07/28 03:57:41;;;;;;;2.17;1.65;;;21.00;68.90;;;;;;5011266;28;20202;-69
2023/07/28 04:00:08;;;;;;;1.70;1.60;;;21.00;68.90;;;;;;4988780;28;20196;-69
2023/07/28 04:02:40;;;;;;;1.55;1.45;;;21.00;68.90;;;;;;5011508;28;20231;-69
2023/07/28 04:05:06;;;;;;;1.77;1.67;;;21.00;68.90;;;;;;4978819;28;20204;-68
2023/07/28 04:07:32;;;;;;;1.50;1.40;;;21.00;68.90;;;;;;4994372;28;20269;-69
2023/07/28 04:09:57;;;;;;;1.77;1.67;;;21.00;68.90;;;;;;5011242;28;20187;-69
2023/07/28 04:12:23;;;;;;;2.08;1.88;;;21.00;68.90;;;;;;4970454;28;20196;-69
2023/07/28 04:14:49;;;;;;;1.70;1.60;;;21.00;68.90;;;;;;4993859;28;20212;-69
2023/07/28 04:17:15;;;;;;;1.63;1.52;;;21.00;68.80;;;;;;4989316;28;20270;-69
2023/07/28 04:19:40;;;;;;;1.90;1.80;;;21.00;68.80;;;;;;4986288;28;20199;-69
2023/07/28 04:22:06;;;;;;;1.92;1.77;;;21.00;68.80;;;;;;5011069;28;20271;-69
2023/07/28 04:24:34;;;;;;;1.80;1.70;;;21.00;68.80;;;;;;4986264;28;20354;-69
2023/07/28 04:27:00;;;;;;;1.60;1.50;;;21.00;68.80;;;;;;4991519;28;20231;-69
2023/07/28 04:29:27;;;;;;;1.75;1.65;;;21.00;68.90;;;;;;5010606;28;20232;-69
2023/07/28 04:31:53;;;;;;;1.60;1.50;;;21.00;68.80;;;;;;4994607;28;20206;-69
2023/07/28 04:34:27;;;;;;;1.65;1.55;;;21.00;68.90;;;;;;4994507;28;20281;-69
2023/07/28 04:37:15;;;;;;;1.67;1.58;;;21.00;68.90;;;;;;4995008;28;20254;-69
2023/07/28 04:39:50;;;;;;;1.60;1.50;;;21.00;68.80;;;;;;4995250;28;20192;-69
2023/07/28 04:42:16;;;;;;;1.80;1.70;;;21.00;68.80;;;;;;5007717;28;20192;-68
2023/07/28 04:44:46;;;;;;;1.70;1.60;;;21.00;68.80;;;;;;4991142;28;20300;-69
2023/07/28 04:47:12;;;;;;;1.77;1.67;;;20.90;68.80;;;;;;5010701;28;20183;-69
2023/07/28 04:49:37;;;;;;;1.90;1.70;;;20.90;68.80;;;;;;5007791;28;20216;-68
2023/07/28 04:52:24;;;;;;;1.60;1.50;;;21.00;68.90;;;;;;4969017;28;20195;-69
2023/07/28 04:55:10;;;;;;;1.63;1.52;;;21.00;68.90;;;;;;4989862;28;20212;-68
2023/07/28 04:57:36;;;;;;;2.08;1.80;;;21.00;69.60;;;;;;5010140;28;20222;-68
2023/07/28 05:00:02;;;;;;;1.67;1.58;;;21.00;68.90;;;;;;4994019;28;20227;-68
2023/07/28 05:02:28;;;;;;;1.90;1.60;;;21.00;68.90;;;;;;5010682;28;20198;-69
2023/07/28 05:04:53;;;;;;;1.50;1.40;;;21.00;68.90;;;;;;4994041;28;20219;-69
2023/07/28 05:07:20;;;;;;;1.98;1.77;;;21.00;68.90;;;;;;4980722;28;20651;-69
2023/07/28 05:09:45;;;;;;;1.58;1.48;;;21.00;68.90;;;;;;4977474;28;20702;-70
2023/07/28 05:12:11;;;;;;;1.80;1.70;;;21.00;68.90;;;;;;5012320;28;20225;-69
2023/07/28 05:14:43;;;;;;;1.50;1.40;;;21.00;68.90;;;;;;4989865;28;20205;-69
2023/07/28 05:17:08;;;;;;;1.67;1.58;;;20.90;68.90;;;;;;4993988;28;20224;-69
2023/07/28 05:20:05;;;;;;;1.60;1.50;;;21.00;69.00;;;;;;5013603;28;20183;-69
2023/07/28 05:22:46;;;;;;;1.70;1.60;;;21.00;69.00;;;;;;5003930;28;20274;-68
2023/07/28 05:25:13;;;;;;;2.20;1.75;;;21.00;69.00;;;;;;4990652;28;20199;-68
2023/07/28 05:27:41;;;;;;;1.98;1.50;;;21.00;69.00;;;;;;4989453;28;20207;-69
2023/07/28 05:30:08;;;;;;;1.50;1.40;;;21.00;69.00;;;;;;5006149;28;20307;-68
2023/07/28 05:32:33;;;;;;;1.52;1.42;;;21.00;69.00;;;;;;5005599;28;20233;-68
2023/07/28 05:35:10;;;;;;;1.67;1.58;;;21.00;69.00;;;;;;5017190;28;20216;-69
2023/07/28 05:37:35;;;;;;;1.52;1.42;;;20.90;69.00;;;;;;4982004;28;20627;-69
2023/07/28 05:40:01;;;;;;;1.70;1.60;;;20.90;69.00;;;;;;5013331;28;20200;-69
2023/07/28 05:42:27;;;;;;;1.60;1.50;;;20.90;69.00;;;;;;4998639;28;20216;-69
2023/07/28 05:44:54;;;;;;;1.83;1.73;;;20.90;69.00;;;;;;4992819;28;20208;-69
2023/07/28 05:47:21;;;;;;;1.55;1.45;;;21.00;69.10;;;;;;4992422;28;20189;-69
2023/07/28 05:49:47;;;;;;;1.98;1.30;;;20.90;69.00;;;;;;5002452;28;20192;-69
2023/07/28 05:52:13;;;;;;;1.52;1.42;;;20.90;69.10;;;;;;4998638;28;20180;-69
2023/07/28 05:54:38;;;;;;;2.75;1.48;;;20.90;69.10;;;;;;4997299;28;20254;-69
2023/07/28 05:57:05;;;;;;;1.65;1.55;;;20.90;69.00;;;;;;4997067;28;20187;-69
2023/07/28 05:59:31;;;;;;;1.70;1.60;;;21.00;69.20;;;;;;5005093;28;20287;-69
2023/07/28 06:01:56;;;;;;;1.92;1.83;;;21.00;69.20;;;;;;5012246;28;20279;-68
2023/07/28 06:04:48;;;;;;;1.75;1.50;;;21.00;69.20;;;;;;5010291;28;20223;-68
2023/07/28 06:07:14;;;;;;;1.65;1.55;;;21.00;69.30;;;;;;4974143;28;20188;-68
2023/07/28 06:09:41;;;;;;;1.75;1.60;;;21.00;69.30;;;;;;5013348;28;20219;-68
2023/07/28 06:12:07;;;;;;;1.80;1.70;;;20.90;69.10;;;;;;5005123;28;20188;-68
2023/07/28 06:14:33;;;;;;;1.40;1.30;;;20.90;69.20;;;;;;4972954;28;20204;-68
2023/07/28 06:16:59;;;;;;;1.58;1.48;;;21.00;69.30;;;;;;5004813;28;20188;-68
2023/07/28 06:19:29;;;;;;;1.60;1.50;;;21.00;69.30;;;;;;4996601;28;20191;-68
2023/07/28 06:21:55;;;;;;;1.52;1.40;;;20.90;69.20;;;;;;5013357;28;20180;-69
2023/07/28 06:24:21;;;;;;;2.67;1.85;;;20.90;69.30;;;;;;5018017;28;20187;-68
2023/07/28 06:26:47;;;;;;;1.60;1.50;;;21.00;69.40;;;;;;5015589;28;20610;-68
2023/07/28 06:29:12;;;;;;;1.92;1.20;;;20.90;69.30;;;;;;4992453;28;20207;-69
2023/07/28 06:31:38;;;;;;;1.88;1.77;;;21.00;69.40;;;;;;5032560;28;20176;-68
2023/07/28 06:34:04;;;;;;;1.63;1.52;;;21.00;69.40;;;;;;4996634;28;20192;-69
2023/07/28 06:36:30;;;;;;;1.63;1.50;;;21.00;69.40;;;;;;4992773;28;20292;-68
2023/07/28 06:38:56;;;;;;;1.70;1.60;;;21.00;69.40;;;;;;4986099;28;20195;-69
2023/07/28 06:41:22;;;;;;;1.50;1.40;;;21.00;69.40;;;;;;5006334;28;20655;-68
2023/07/28 06:43:54;;;;;;;1.40;1.30;;;21.00;69.70;;;;;;5012455;28;20322;-68
2023/07/28 06:46:20;;;;;;;1.67;1.58;;;21.00;69.40;;;;;;4989609;28;20209;-68
2023/07/28 06:48:46;;;;;;;1.60;1.50;;;21.00;69.50;;;;;;5012390;28;20286;-67
2023/07/28 06:51:15;;;;;;;1.83;1.70;;;21.00;69.50;;;;;;4996464;28;20188;-68
2023/07/28 06:53:41;;;;;;;1.60;1.50;;;21.00;69.60;;;;;;4996510;28;20203;-69
2023/07/28 06:56:07;;;;;;;1.63;1.52;;;21.00;69.50;;;;;;5023230;28;20211;-68
2023/07/28 06:58:33;;;;;;;3.08;1.50;;;21.00;69.50;;;;;;5000270;28;20193;-69
2023/07/28 07:00:58;;;;;;;2.25;1.67;;;21.00;69.40;;;;;;5007341;28;20203;-68
2023/07/28 07:03:24;;;;;;;1.42;1.33;;;21.00;69.50;;;;;;5002866;28;20184;-69
2023/07/28 07:05:50;;;;;;;1.70;1.55;;;21.00;69.50;;;;;;5015275;28;20213;-68
2023/07/28 07:08:16;;;;;;;1.98;1.88;;;21.00;69.50;;;;;;4999971;28;20209;-69
2023/07/28 07:10:51;;;;;;;1.70;1.60;;;21.00;69.60;;;;;;5000249;28;20191;-69
2023/07/28 07:13:17;;;;;;;1.83;1.73;;;21.00;69.70;;;;;;5000410;28;20183;-68
2023/07/28 07:15:43;;;;;;;1.70;1.60;;;21.00;69.60;;;;;;5013156;28;20215;-68
2023/07/28 07:18:08;;;;;;;1.67;1.58;;;21.00;69.80;;;;;;5011075;28;20204;-68
2023/07/28 07:20:36;;;;;;;1.67;1.58;;;21.00;69.90;;;;;;5004704;28;20192;-68
2023/07/28 07:23:02;;;;;;;1.80;1.70;;;21.10;69.90;;;;;;5010065;28;20196;-68
2023/07/28 07:25:27;;;;;;;1.63;1.52;;;21.00;70.00;;;;;;5010097;28;20226;-68
2023/07/28 07:27:53;;;;;;;1.92;1.52;;;21.10;70.10;;;;;;4995369;28;20208;-68
2023/07/28 07:30:19;;;;;;;3.08;1.67;;;21.10;70.10;;;;;;4979451;28;20188;-68
2023/07/28 07:32:45;;;;;;;1.77;1.60;;;21.10;70.00;;;;;;5008464;28;20192;-70
2023/07/28 07:35:11;;;;;;;1.80;1.70;;;21.10;70.40;;;;;;4997635;28;20233;-68
2023/07/28 07:37:37;;;;;;;1.92;1.83;;;21.10;70.10;;;;;;5017868;28;20561;-68
2023/07/28 07:40:06;;;;;;;2.28;1.55;;;21.10;70.20;;;;;;5008120;28;20189;-69
2023/07/28 07:42:47;;;;;;;2.45;1.73;;;21.10;70.60;;;;;;5027927;28;20180;-69
2023/07/28 07:45:14;;;;;;;1.65;1.55;;;21.10;70.60;;;;;;4997088;28;20294;-68
2023/07/28 07:47:41;;;;;;;1.90;1.80;;;21.10;70.80;;;;;;5010807;28;20200;-69
2023/07/28 07:50:09;;;;;;;1.70;1.60;;;21.10;71.00;;;;;;4995289;28;20188;-68
2023/07/28 07:52:36;;;;;;;1.60;1.48;;;21.10;70.80;;;;;;4979007;28;20176;-68
2023/07/28 07:55:03;;;;;;;1.92;1.75;;;21.10;71.80;;;;;;4994632;28;20210;-69
2023/07/28 07:57:29;;;;;;;1.85;1.75;;;21.10;71.10;;;;;;5011174;28;20203;-68
2023/07/28 07:59:57;;;;;;;2.17;1.98;;;21.10;71.10;;;;;;4991468;28;20236;-68
2023/07/28 08:02:23;;;;;;;2.05;1.85;;;21.10;71.50;;;;;;4997477;28;20180;-68
2023/07/28 08:04:50;;;;;;;1.63;1.52;;;21.20;71.30;;;;;;5008165;28;20207;-69
2023/07/28 08:07:19;;;;;;;1.83;1.65;;;21.10;71.20;;;;;;5002611;28;20226;-68
2023/07/28 08:09:45;;;;;;;2.03;1.75;;;21.20;71.70;;;;;;4994428;28;20223;-68
2023/07/28 08:12:12;;;;;;;1.80;1.70;;;21.20;71.40;;;;;;5012117;28;20188;-68
2023/07/28 08:14:38;;;;;;;1.85;1.65;;;21.10;72.00;;;;;;5008120;28;20236;-68
2023/07/28 08:17:04;;;;;;;2.67;1.60;;;21.20;71.30;;;;;;5000907;28;20191;-68
2023/07/28 08:19:30;;;;;;;1.58;1.48;;;21.20;71.40;;;;;;5010674;28;20192;-68
2023/07/28 08:21:55;;;;;;;1.70;1.60;;;21.20;71.40;;;;;;4993545;28;20191;-69
2023/07/28 08:24:21;;;;;;;1.80;1.70;;;21.20;71.50;;;;;;4993724;28;20188;-68
2023/07/28 08:26:47;;;;;;;1.88;1.65;;;21.10;71.00;;;;;;5010220;28;20196;-69
2023/07/28 08:29:12;;;;;;;1.67;1.58;;;21.20;71.30;;;;;;4986509;28;20223;-68
2023/07/28 08:31:38;;;;;;;2.72;1.90;;;21.20;72.00;;;;;;5008684;28;20184;-69
2023/07/28 08:34:04;;;;;;;2.08;1.88;;;21.20;71.80;;;;;;4992455;28;20188;-69
2023/07/28 08:36:29;;;;;;;1.88;1.67;;;21.20;72.10;;;;;;5017915;28;20216;-69
2023/07/28 08:38:55;;;;;;;1.67;1.58;;;21.20;73.30;;;;;;5010875;28;20187;-71
2023/07/28 08:41:21;;;;;;;2.10;1.63;;;21.20;72.60;;;;;;5012752;28;20220;-68
2023/07/28 08:43:46;;;;;;;1.65;1.55;;;21.20;72.40;;;;;;4994836;28;20196;-69
2023/07/28 08:46:13;;;;;;;1.75;1.65;;;21.20;72.90;;;;;;5010931;28;20212;-69
2023/07/28 08:48:39;;;;;;;2.50;1.70;;;21.20;72.60;;;;;;5002546;28;20259;-69
2023/07/28 08:51:05;;;;;;;2.30;2.10;;;21.20;73.00;;;;;;4978436;28;20282;-69
2023/07/28 08:53:30;;;;;;;1.80;1.70;;;21.20;72.60;;;;;;4994463;28;20184;-69
2023/07/28 08:55:56;;;;;;;2.03;1.80;;;21.20;72.70;;;;;;4986837;28;20209;-70
2023/07/28 08:58:26;;;;;;;5.70;1.90;;;21.20;72.60;;;;;;4982267;28;20197;-69
2023/07/28 09:00:52;;;;;;;1.90;1.70;;;21.20;73.10;;;;;;5011357;28;20651;-69
2023/07/28 09:03:19;;;;;;;1.80;1.70;;;21.20;73.20;;;;;;5014740;28;20196;-70
2023/07/28 09:05:46;;;;;;;1.92;1.77;;;21.20;73.10;;;;;;5011764;28;20208;-70
2023/07/28 09:08:18;;;;;;;1.98;1.80;;;21.20;73.00;;;;;;5006297;28;20211;-70
2023/07/28 09:10:49;;;;;;;1.77;1.67;;;21.20;72.80;;;;;;4995560;28;20207;-69
2023/07/28 09:13:18;;;;;;;1.80;1.70;;;21.20;72.80;;;;;;4997220;28;20195;-69
2023/07/28 09:15:44;;;;;;;2.63;2.22;;;21.20;72.80;;;;;;4997284;28;20214;-69
2023/07/28 09:18:13;;;;;;;3.25;1.90;;;21.20;72.70;;;;;;5013706;28;20220;-68
2023/07/28 09:20:41;;;;;;;2.78;1.75;;;21.20;72.80;;;;;;5006690;28;20188;-69
2023/07/28 09:23:08;;;;;;;3.13;2.08;;;21.20;72.90;;;;;;5026188;28;20257;-68
2023/07/28 09:25:36;;;;;;;2.28;2.08;;;21.30;72.70;;;;;;4997579;28;20266;-68
2023/07/28 09:28:03;;;;;;;1.70;1.60;;;21.30;73.00;;;;;;5011708;28;20220;-68
2023/07/28 09:30:48;;;;;;;2.20;2.00;;;21.20;73.30;;;;;;5014344;28;20263;-69
2023/07/28 09:33:30;;;;;;;2.20;2.00;;;21.30;73.20;;;;;;4989533;28;20188;-68
2023/07/28 09:35:57;;;;;;;2.30;2.10;;;21.30;73.40;;;;;;5006619;28;20212;-69
2023/07/28 09:38:26;;;;;;;1.98;1.88;;;21.30;72.80;;;;;;5005016;28;20211;-69
2023/07/28 09:40:54;;;;;;;1.83;1.73;;;21.30;72.80;;;;;;5013930;28;20279;-68
2023/07/28 09:43:19;;;;;;;1.85;1.75;;;21.30;72.90;;;;;;5012232;28;20251;-68
2023/07/28 09:45:46;;;;;;;2.28;2.05;;;21.40;72.70;;;;;;4975512;28;20298;-68
2023/07/28 09:48:15;;;;;;;2.40;2.10;;;21.40;72.80;;;;;;5012965;28;20234;-69
2023/07/28 09:50:43;;;;;;;1.90;1.75;;;21.30;73.00;;;;;;4973477;28;20184;-68
2023/07/28 09:53:13;;;;;;;3.03;2.20;;;21.30;72.70;;;;;;5010146;28;20180;-68
2023/07/28 09:55:42;;;;;;;2.30;2.10;;;21.30;72.50;;;;;;5003730;28;20227;-69
2023/07/28 09:58:12;;;;;;;2.47;2.28;;;21.40;72.60;;;;;;4972229;28;20196;-69
2023/07/28 10:00:38;;;;;;;2.47;2.10;;;21.40;72.50;;;;;;5008074;28;20200;-68
2023/07/28 10:03:05;;;;;;;2.65;2.08;;;21.40;72.90;;;;;;4994007;28;20450;-69
2023/07/28 10:05:34;;;;;;;2.28;2.08;;;21.40;72.80;;;;;;4993873;28;20207;-68
2023/07/28 10:08:01;;;;;;;2.20;1.90;;;21.40;72.80;;;;;;4992915;28;20228;-68
2023/07/28 10:10:27;;;;;;;2.08;1.90;;;21.40;72.50;;;;;;5012639;28;20184;-68
2023/07/28 10:12:57;;;;;;;2.72;2.08;;;21.40;72.70;;;;;;4990618;28;20184;-68
2023/07/28 10:15:31;;;;;;;1.83;1.73;;;21.40;72.70;;;;;;5030605;28;20696;-68
2023/07/28 10:17:59;;;;;;;2.13;1.92;;;21.40;72.50;;;;;;5014197;28;20214;-69
2023/07/28 10:20:32;;;;;;;2.00;1.90;;;21.40;72.60;;;;;;5010365;28;20569;-68
2023/07/28 10:23:22;;;;;;;2.75;2.55;;;21.40;72.50;;;;;;4961274;28;20193;-69
2023/07/28 10:26:05;;;;;;;1.90;1.80;;;21.40;72.60;;;;;;5003923;28;20216;-69
2023/07/28 10:28:43;;;;;;;2.47;2.28;;;21.40;73.00;;;;;;5000965;28;20224;-69
2023/07/28 10:31:11;;;;;;;2.28;2.00;;;21.40;72.80;;;;;;5009913;28;20192;-69
2023/07/28 10:33:39;;;;;;;2.13;2.03;;;21.40;72.80;;;;;;5003450;28;20188;-68
2023/07/28 10:36:21;;;;;;;2.25;2.05;;;21.50;73.00;;;;;;5012702;28;20216;-69
2023/07/28 10:39:07;;;;;;;2.45;2.25;;;21.50;72.90;;;;;;4996783;28;20255;-69
2023/07/28 10:41:35;;;;;;;3.33;1.85;;;21.40;72.60;;;;;;5012846;28;20220;-68
2023/07/28 10:44:02;;;;;;;2.20;2.00;;;21.40;72.60;;;;;;5011460;28;20292;-69
2023/07/28 10:46:28;;;;;;;2.50;2.30;;;21.50;72.80;;;;;;4996762;28;20223;-68
2023/07/28 10:48:54;;;;;;;2.35;2.20;;;21.50;72.90;;;;;;5012346;28;20251;-69
2023/07/28 10:51:32;;;;;;;2.03;1.92;;;21.50;72.90;;;;;;4996115;28;20188;-69
2023/07/28 10:54:00;;;;;;;2.60;2.15;;;21.50;72.80;;;;;;5004490;28;20188;-69
2023/07/28 10:56:28;;;;;;;2.05;1.92;;;21.50;73.00;;;;;;4993136;28;20212;-69
2023/07/28 10:59:02;;;;;;;2.47;2.28;;;21.50;72.80;;;;;;4984214;28;20188;-69
2023/07/28 11:01:36;;;;;;;2.03;1.92;;;21.50;73.30;;;;;;4994876;28;20251;-69
2023/07/28 11:04:23;;;;;;;2.10;2.00;;;21.50;73.40;;;;;;5004153;28;20192;-69
2023/07/28 11:06:50;;;;;;;2.25;2.05;;;21.50;73.00;;;;;;5012509;28;20200;-70
2023/07/28 11:09:19;;;;;;;2.15;2.00;;;21.50;73.10;;;;;;4987323;28;20243;-69
2023/07/28 11:11:46;;;;;;;2.50;2.28;;;21.50;73.00;;;;;;4995709;28;20180;-69
2023/07/28 11:14:14;;;;;;;2.65;1.95;;;21.50;73.00;;;;;;4996215;28;20242;-72
2023/07/28 11:16:41;;;;;;;1.95;1.85;;;21.50;73.00;;;;;;5009661;28;20259;-69
2023/07/28 11:19:19;;;;;;;2.20;2.00;;;21.50;73.30;;;;;;4991766;28;20206;-69
2023/07/28 11:21:50;;;;;;;2.15;1.98;;;21.50;73.00;;;;;;5010996;28;20187;-69
2023/07/28 11:24:19;;;;;;;2.15;1.80;;;21.50;73.00;;;;;;5011770;28;20199;-69
2023/07/28 11:26:46;;;;;;;1.95;1.75;;;21.50;73.00;;;;;;4995519;28;20191;-69
2023/07/28 11:29:11;;;;;;;2.13;1.92;;;21.50;73.00;;;;;;4997084;28;20208;-69
2023/07/28 11:31:38;;;;;;;2.15;1.95;;;21.50;73.00;;;;;;4987548;28;20188;-69
2023/07/28 11:34:16;;;;;;;2.58;1.92;;;21.50;72.90;;;;;;5006040;28;20188;-69
2023/07/28 11:36:42;;;;;;;2.17;1.98;;;21.50;73.20;;;;;;4987923;28;20188;-69
2023/07/28 11:39:10;;;;;;;2.30;2.10;;;21.50;73.50;;;;;;5011607;28;20209;-69
2023/07/28 11:41:38;;;;;;;2.63;2.42;;;21.50;73.40;;;;;;4975760;28;20177;-69
2023/07/28 11:44:05;;;;;;;2.47;2.25;;;21.50;73.10;;;;;;4980995;28;20202;-69
2023/07/28 11:46:36;;;;;;;2.22;2.10;;;21.50;73.30;;;;;;4994835;28;20213;-69
2023/07/28 11:49:13;;;;;;;2.65;2.35;;;21.50;73.50;;;;;;5011391;28;20584;-69
2023/07/28 11:51:43;;;;;;;2.28;2.10;;;21.40;73.30;;;;;;4994984;28;20238;-69
2023/07/28 11:54:14;;;;;;;2.35;2.15;;;21.50;73.40;;;;;;4992005;28;20239;-69
2023/07/28 11:56:45;;;;;;;2.30;2.10;;;21.50;73.30;;;;;;5000129;28;20267;-69
2023/07/28 11:59:15;;;;;;;2.30;2.10;;;21.50;73.30;;;;;;4995209;28;20204;-69
2023/07/28 12:02:10;;;;;;;1.92;1.83;;;21.40;73.50;;;;;;4998601;28;20185;-69
2023/07/28 12:04:40;;;;;;;2.13;2.03;;;21.50;73.30;;;;;;5010613;28;20212;-70
2023/07/28 12:07:16;;;;;;;2.30;2.10;;;21.50;73.30;;;;;;5011510;28;20199;-69
2023/07/28 12:09:46;;;;;;;2.28;2.08;;;21.50;73.50;;;;;;5003182;28;20216;-69
2023/07/28 12:12:17;;;;;;;2.17;1.98;;;21.50;73.70;;;;;;4994529;28;20192;-69
2023/07/28 12:14:46;;;;;;;2.58;2.38;;;21.50;73.60;;;;;;5008411;28;20216;-69
2023/07/28 12:17:17;;;;;;;2.97;2.10;;;21.50;73.30;;;;;;4998007;28;20176;-69
2023/07/28 12:20:00;;;;;;;2.10;1.90;;;21.50;73.40;;;;;;4990369;28;20184;-69
2023/07/28 12:22:27;;;;;;;2.13;2.00;;;21.50;73.30;;;;;;4988275;28;20184;-69
2023/07/28 12:24:54;;;;;;;2.47;2.28;;;21.50;73.40;;;;;;4998012;28;20208;-69
2023/07/28 12:27:23;;;;;;;2.05;1.85;;;21.50;73.80;;;;;;4991438;28;20195;-71
2023/07/28 12:29:50;;;;;;;2.08;1.98;;;21.50;73.60;;;;;;5006686;28;20231;-69
2023/07/28 12:32:16;;;;;;;2.00;1.90;;;21.50;73.70;;;;;;5003793;28;20194;-70
2023/07/28 12:34:42;;;;;;;2.17;1.98;;;21.50;73.60;;;;;;4985981;28;20294;-70
2023/07/28 12:37:08;;;;;;;2.47;2.28;;;21.50;74.40;;;;;;5003402;28;20199;-70
2023/07/28 12:39:39;;;;;;;4.15;2.15;;;21.50;73.50;;;;;;5007404;28;20206;-69
2023/07/28 12:42:07;;;;;;;2.13;2.00;;;21.50;73.60;;;;;;5001910;28;20252;-69
2023/07/28 12:44:33;;;;;;;2.75;2.08;;;21.50;73.40;;;;;;4989134;28;20195;-69
2023/07/28 12:46:59;;;;;;;2.92;2.10;;;21.50;73.30;;;;;;4987963;28;20192;-69
2023/07/28 12:49:24;;;;;;;2.20;2.00;;;21.60;73.20;;;;;;5002148;28;20255;-69
2023/07/28 12:51:50;;;;;;;3.42;2.35;;;21.50;73.00;;;;;;4990461;28;20181;-69
2023/07/28 12:54:16;;;;;;;2.47;2.10;;;21.50;73.00;;;;;;5006492;28;20184;-70